Afina I — 9HA4601 — position and weather

sailwx.info

Track history (hours):
 
Tides and Currents Weather Stations Pressure Air Temp Water Temp Dewpoint Dewpoint Depression Visibility Wind Speed Wind Dir Waves Ship Positions

Afina I

Last reported at 2018-May-19 20:59 UTC. Time now 2018-Jun-25 09:33 UTC.
Position N 38°35' E 025°04'.
Warning: this ship's position is 36 days out of date.

Length 139 m; draft 5.3 m.

Type: Cargo ship. MMSI: 248300000.

Date/timePositionNaut miles runAvg speedWind from/ knotsBaromVisibWave heightAir tempDewpointWater temp
2018-May-19 20:59N 38°35' E 025°04'109 8.4
2018-May-19 08:02N 37°01' E 023°56'211.5
2018-May-19 07:52N 36°60' E 023°54'445 9.3
2018-May-17 08:07N 36°19' E 014°41'110.9
2018-May-17 08:00N 36°19' E 014°40'510.8
2018-May-17 07:30N 36°19' E 014°33'610.8
2018-May-17 07:00N 36°19' E 014°26'511.0
2018-May-17 06:30N 36°19' E 014°20'611.2
2018-May-17 06:00N 36°18' E 014°13'611.6
2018-May-17 05:30N 36°17' E 014°06'711.9
2018-May-17 04:54N 36°15' E 013°57'511.9
2018-May-17 04:28N 36°14' E 013°51'712.0
2018-May-17 03:53N 36°13' E 013°42'512.0
2018-May-17 03:30N 36°12' E 013°37'612.3
2018-May-17 02:59N 36°10' E 013°29'612.2
2018-May-17 02:29N 36°09' E 013°22'612.2
2018-May-17 02:00N 36°08' E 013°15'612.1
2018-May-17 01:29N 36°07' E 013°07'712.2
2018-May-17 00:57N 36°05' E 012°59'1512.0
2018-May-16 23:40N 36°03' E 012°40'311.7
2018-May-16 23:27N 36°02' E 012°37'511.6
2018-May-16 23:00N 36°01' E 012°31'611.4
2018-May-16 22:30N 35°60' E 012°24'611.3
2018-May-16 22:00N 35°59' E 012°17'911.3
2018-May-16 21:11N 35°57' E 012°06'211.4
2018-May-16 21:00N 35°56' E 012°04'511.2
2018-May-16 20:30N 35°55' E 011°57'611.4
2018-May-16 20:00N 35°54' E 011°50'611.3
2018-May-16 19:28N 35°53' E 011°43'511.2
2018-May-16 19:00N 35°53' E 011°36'611.2
2018-May-16 18:28N 35°52' E 011°29'511.0
2018-May-16 18:00N 35°52' E 011°23'36 1.4
2018-May-15 15:49N 35°50' E 010°39'  
Track history (hours):
 
Tides and Currents Weather Stations Pressure Air Temp Water Temp Dewpoint Dewpoint Depression Visibility Wind Speed Wind Dir Waves Ship Positions

Afina I

Last reported at 2018-May-19 20:59 UTC. Time now 2018-Jun-25 09:33 UTC.
Position N 38°35' E 025°04'.
Warning: this ship's position is 36 days out of date.

Length 139 m; draft 5.3 m.

Type: Cargo ship. MMSI: 248300000.

Date/timePositionNaut miles runAvg speedWind from/ knotsBaromVisibWave heightAir tempDewpointWater temp
2018-May-19 20:59N 38°35' E 025°04'109 8.4
2018-May-19 08:02N 37°01' E 023°56'211.5
2018-May-19 07:52N 36°60' E 023°54'445 9.3
2018-May-17 08:07N 36°19' E 014°41'110.9
2018-May-17 08:00N 36°19' E 014°40'510.8
2018-May-17 07:30N 36°19' E 014°33'610.8
2018-May-17 07:00N 36°19' E 014°26'511.0
2018-May-17 06:30N 36°19' E 014°20'611.2
2018-May-17 06:00N 36°18' E 014°13'611.6
2018-May-17 05:30N 36°17' E 014°06'711.9
2018-May-17 04:54N 36°15' E 013°57'511.9
2018-May-17 04:28N 36°14' E 013°51'712.0
2018-May-17 03:53N 36°13' E 013°42'512.0
2018-May-17 03:30N 36°12' E 013°37'612.3
2018-May-17 02:59N 36°10' E 013°29'612.2
2018-May-17 02:29N 36°09' E 013°22'612.2
2018-May-17 02:00N 36°08' E 013°15'612.1
2018-May-17 01:29N 36°07' E 013°07'712.2
2018-May-17 00:57N 36°05' E 012°59'1512.0
2018-May-16 23:40N 36°03' E 012°40'311.7
2018-May-16 23:27N 36°02' E 012°37'511.6
2018-May-16 23:00N 36°01' E 012°31'611.4
2018-May-16 22:30N 35°60' E 012°24'611.3
2018-May-16 22:00N 35°59' E 012°17'911.3
2018-May-16 21:11N 35°57' E 012°06'211.4
2018-May-16 21:00N 35°56' E 012°04'511.2
2018-May-16 20:30N 35°55' E 011°57'611.4
2018-May-16 20:00N 35°54' E 011°50'611.3
2018-May-16 19:28N 35°53' E 011°43'511.2
2018-May-16 19:00N 35°53' E 011°36'611.2
2018-May-16 18:28N 35°52' E 011°29'511.0
2018-May-16 18:00N 35°52' E 011°23'36 1.4
2018-May-15 15:49N 35°50' E 010°39'  

Dump ship's entire track history